DLH4LM EDDF-EDDM
Flight info
| Callsign | DLH4LM |
|---|---|
| Flight time | 0h 39m |
| Altitude | 23000 |
| Route | CINDY8S/18 CINDY Z74 HAREM T104 ROKIL ROKIL1B |
| Aircraft | CRJ9/M-SDFGIRWY/S |
Departure
| Time | 2026-05-07 07:57 |
|---|---|
| Airport | Frankfurt Main Airport (EDDF) |
Arrival
| Time | 2026-05-07 08:36 |
|---|---|
| Airport | Munich Airport (EDDM) |
| Time | Latitude | Longitude | Altitude | Speed | Heading |
|---|---|---|---|---|---|
| 2026-05-07 06:52 | 50.04918 | 8.57078 | 354 ft | 0 kts | 97° |
| 2026-05-07 07:48 | 50.04918 | 8.57079 | 354 ft | 0 kts | 97° |
| 2026-05-07 07:49 | 50.04917 | 8.57085 | 354 ft | 0 kts | 120° |
| 2026-05-07 07:49 | 50.04903 | 8.57096 | 356 ft | 6 kts | 172° |
| 2026-05-07 07:49 | 50.04839 | 8.57066 | 356 ft | 13 kts | 203° |
| 2026-05-07 07:49 | 50.04746 | 8.56999 | 359 ft | 16 kts | 205° |
| 2026-05-07 07:50 | 50.04640 | 8.56926 | 360 ft | 17 kts | 201° |
| 2026-05-07 07:50 | 50.04528 | 8.56884 | 357 ft | 16 kts | 193° |
| 2026-05-07 07:50 | 50.04443 | 8.56788 | 363 ft | 16 kts | 248° |
| 2026-05-07 07:50 | 50.04400 | 8.56612 | 360 ft | 18 kts | 249° |
| 2026-05-07 07:51 | 50.04354 | 8.56419 | 357 ft | 20 kts | 250° |
| 2026-05-07 07:51 | 50.04305 | 8.56214 | 358 ft | 21 kts | 250° |
| 2026-05-07 07:51 | 50.04254 | 8.55998 | 356 ft | 22 kts | 249° |
| 2026-05-07 07:51 | 50.04200 | 8.55774 | 351 ft | 23 kts | 249° |
| 2026-05-07 07:52 | 50.04145 | 8.55545 | 351 ft | 23 kts | 250° |
| 2026-05-07 07:52 | 50.04089 | 8.55310 | 356 ft | 23 kts | 250° |
| 2026-05-07 07:52 | 50.04034 | 8.55081 | 357 ft | 23 kts | 249° |
| 2026-05-07 07:52 | 50.03978 | 8.54847 | 357 ft | 24 kts | 250° |
| 2026-05-07 07:53 | 50.03919 | 8.54599 | 350 ft | 25 kts | 250° |
| 2026-05-07 07:53 | 50.03848 | 8.54344 | 348 ft | 26 kts | 235° |
| 2026-05-07 07:53 | 50.03768 | 8.54089 | 345 ft | 27 kts | 250° |
| 2026-05-07 07:53 | 50.03703 | 8.53816 | 340 ft | 27 kts | 250° |
| 2026-05-07 07:54 | 50.03636 | 8.53546 | 338 ft | 27 kts | 249° |
| 2026-05-07 07:54 | 50.03572 | 8.53274 | 336 ft | 27 kts | 249° |
| 2026-05-07 07:54 | 50.03506 | 8.53005 | 332 ft | 27 kts | 250° |
| 2026-05-07 07:54 | 50.03447 | 8.52787 | 331 ft | 13 kts | 248° |
| 2026-05-07 07:55 | 50.03434 | 8.52732 | 330 ft | 5 kts | 249° |
| 2026-05-07 07:55 | 50.03420 | 8.52676 | 331 ft | 6 kts | 249° |
| 2026-05-07 07:55 | 50.03397 | 8.52606 | 332 ft | 8 kts | 215° |
| 2026-05-07 07:55 | 50.03355 | 8.52594 | 334 ft | 2 kts | 181° |
| 2026-05-07 07:56 | 50.03351 | 8.52594 | 334 ft | 1 kts | 181° |
| 2026-05-07 07:56 | 50.03348 | 8.52594 | 332 ft | 0 kts | 181° |
| 2026-05-07 07:56 | 50.03343 | 8.52594 | 332 ft | 1 kts | 181° |
| 2026-05-07 07:56 | 50.03334 | 8.52593 | 333 ft | 0 kts | 181° |
| 2026-05-07 07:57 | 50.03133 | 8.52595 | 333 ft | 69 kts | 179° |
| 2026-05-07 07:57 | 50.02388 | 8.52604 | 333 ft | 142 kts | 180° |
| 2026-05-07 07:57 | 50.01214 | 8.52603 | 472 ft | 187 kts | 181° |
| 2026-05-07 07:57 | 49.99947 | 8.52621 | 1518 ft | 170 kts | 180° |
| 2026-05-07 07:58 | 49.98797 | 8.52707 | 2540 ft | 170 kts | 180° |
| 2026-05-07 07:58 | 49.97577 | 8.52692 | 3231 ft | 179 kts | 183° |
| 2026-05-07 07:58 | 49.96283 | 8.53074 | 3658 ft | 208 kts | 148° |
| 2026-05-07 07:58 | 49.95356 | 8.54873 | 4243 ft | 212 kts | 111° |
| 2026-05-07 07:59 | 49.94826 | 8.56923 | 5346 ft | 207 kts | 109° |
| 2026-05-07 07:59 | 49.94252 | 8.59127 | 5949 ft | 229 kts | 109° |
| 2026-05-07 07:59 | 49.93896 | 8.61579 | 6784 ft | 238 kts | 93° |
| 2026-05-07 07:59 | 49.93809 | 8.64257 | 7411 ft | 258 kts | 88° |
| 2026-05-07 08:00 | 49.93783 | 8.67130 | 8122 ft | 274 kts | 89° |
| 2026-05-07 08:00 | 49.93384 | 8.70104 | 8836 ft | 291 kts | 111° |
| 2026-05-07 08:00 | 49.92553 | 8.73024 | 9739 ft | 300 kts | 117° |
| 2026-05-07 08:00 | 49.91484 | 8.75825 | 10631 ft | 303 kts | 124° |
| 2026-05-07 08:01 | 49.90272 | 8.78521 | 11581 ft | 306 kts | 126° |
| 2026-05-07 08:01 | 49.88976 | 8.81293 | 12060 ft | 328 kts | 126° |
| 2026-05-07 08:01 | 49.87605 | 8.84235 | 12597 ft | 345 kts | 126° |
| 2026-05-07 08:01 | 49.86177 | 8.87315 | 13227 ft | 358 kts | 125° |
| 2026-05-07 08:02 | 49.84744 | 8.90488 | 14117 ft | 360 kts | 124° |
| 2026-05-07 08:02 | 49.83311 | 8.93696 | 14951 ft | 364 kts | 124° |
| 2026-05-07 08:02 | 49.81865 | 8.96942 | 15697 ft | 369 kts | 124° |
| 2026-05-07 08:02 | 49.80396 | 9.00225 | 16471 ft | 373 kts | 124° |
| 2026-05-07 08:03 | 49.78904 | 9.03552 | 17210 ft | 378 kts | 125° |
| 2026-05-07 08:03 | 49.77393 | 9.06910 | 17987 ft | 382 kts | 124° |
| 2026-05-07 08:03 | 49.75865 | 9.10304 | 18613 ft | 386 kts | 124° |
| 2026-05-07 08:03 | 49.74332 | 9.13729 | 19222 ft | 390 kts | 124° |
| 2026-05-07 08:04 | 49.72798 | 9.17138 | 19801 ft | 394 kts | 124° |
| 2026-05-07 08:04 | 49.71224 | 9.20625 | 20394 ft | 397 kts | 124° |
| 2026-05-07 08:04 | 49.69633 | 9.24144 | 20939 ft | 401 kts | 124° |
| 2026-05-07 08:04 | 49.68029 | 9.27687 | 21520 ft | 404 kts | 124° |
| 2026-05-07 08:05 | 49.66409 | 9.31264 | 22046 ft | 408 kts | 124° |
| 2026-05-07 08:05 | 49.64776 | 9.34868 | 22547 ft | 412 kts | 124° |
| 2026-05-07 08:05 | 49.63112 | 9.38532 | 22808 ft | 422 kts | 124° |
| 2026-05-07 08:05 | 49.61385 | 9.42276 | 22904 ft | 435 kts | 127° |
| 2026-05-07 08:06 | 49.59449 | 9.45948 | 22960 ft | 448 kts | 131° |
| 2026-05-07 08:06 | 49.57328 | 9.49555 | 22990 ft | 461 kts | 132° |
| 2026-05-07 08:06 | 49.55129 | 9.53243 | 22999 ft | 473 kts | 132° |
| 2026-05-07 08:06 | 49.52958 | 9.56946 | 22976 ft | 464 kts | 131° |
| 2026-05-07 08:07 | 49.50817 | 9.60696 | 22966 ft | 466 kts | 131° |
| 2026-05-07 08:07 | 49.48677 | 9.64429 | 22961 ft | 464 kts | 131° |
| 2026-05-07 08:07 | 49.46550 | 9.68139 | 22965 ft | 461 kts | 131° |
| 2026-05-07 08:07 | 49.44438 | 9.71817 | 22963 ft | 458 kts | 131° |
| 2026-05-07 08:08 | 49.42337 | 9.75473 | 22957 ft | 455 kts | 131° |
| 2026-05-07 08:08 | 49.40244 | 9.79114 | 22956 ft | 455 kts | 131° |
| 2026-05-07 08:08 | 49.38152 | 9.82750 | 22963 ft | 454 kts | 131° |
| 2026-05-07 08:08 | 49.36074 | 9.86387 | 22967 ft | 453 kts | 130° |
| 2026-05-07 08:09 | 49.34003 | 9.90021 | 22958 ft | 453 kts | 130° |
| 2026-05-07 08:09 | 49.31928 | 9.93651 | 22951 ft | 452 kts | 130° |
| 2026-05-07 08:09 | 49.29847 | 9.97248 | 22944 ft | 451 kts | 131° |
| 2026-05-07 08:09 | 49.27760 | 10.00842 | 22953 ft | 451 kts | 131° |
| 2026-05-07 08:10 | 49.25676 | 10.04423 | 22975 ft | 450 kts | 131° |
| 2026-05-07 08:10 | 49.23593 | 10.08004 | 22991 ft | 451 kts | 131° |
| 2026-05-07 08:10 | 49.21506 | 10.11583 | 23001 ft | 451 kts | 131° |
| 2026-05-07 08:10 | 49.19413 | 10.15151 | 22998 ft | 451 kts | 131° |
| 2026-05-07 08:11 | 49.17316 | 10.18719 | 22990 ft | 452 kts | 131° |
| 2026-05-07 08:11 | 49.15222 | 10.22304 | 23002 ft | 452 kts | 131° |
| 2026-05-07 08:11 | 49.13110 | 10.25872 | 23006 ft | 453 kts | 134° |
| 2026-05-07 08:11 | 49.10924 | 10.29349 | 23011 ft | 454 kts | 135° |
| 2026-05-07 08:12 | 49.08724 | 10.32807 | 22994 ft | 454 kts | 135° |
| 2026-05-07 08:12 | 49.06530 | 10.36277 | 22997 ft | 455 kts | 134° |
| 2026-05-07 08:12 | 49.04348 | 10.39778 | 23002 ft | 455 kts | 134° |
| 2026-05-07 08:12 | 49.02174 | 10.43284 | 23005 ft | 456 kts | 134° |
| 2026-05-07 08:13 | 48.99992 | 10.46796 | 23027 ft | 457 kts | 134° |
| 2026-05-07 08:13 | 48.97799 | 10.50301 | 23013 ft | 457 kts | 134° |
| 2026-05-07 08:13 | 48.95599 | 10.53802 | 22998 ft | 457 kts | 134° |
| 2026-05-07 08:13 | 48.93398 | 10.57295 | 22993 ft | 457 kts | 134° |
| 2026-05-07 08:14 | 48.91201 | 10.60788 | 22999 ft | 457 kts | 134° |
| 2026-05-07 08:14 | 48.89004 | 10.64282 | 23001 ft | 457 kts | 134° |
| 2026-05-07 08:14 | 48.86804 | 10.67771 | 22993 ft | 457 kts | 134° |
| 2026-05-07 08:14 | 48.84605 | 10.71252 | 22999 ft | 457 kts | 135° |
| 2026-05-07 08:15 | 48.82405 | 10.74732 | 22996 ft | 457 kts | 134° |
| 2026-05-07 08:15 | 48.80234 | 10.78159 | 22989 ft | 457 kts | 135° |
| 2026-05-07 08:15 | 48.77998 | 10.81674 | 22979 ft | 457 kts | 135° |
| 2026-05-07 08:15 | 48.75822 | 10.85084 | 22990 ft | 457 kts | 135° |
| 2026-05-07 08:16 | 48.73581 | 10.88593 | 23000 ft | 457 kts | 135° |
| 2026-05-07 08:16 | 48.71398 | 10.92010 | 22999 ft | 458 kts | 135° |
| 2026-05-07 08:16 | 48.69151 | 10.95526 | 22981 ft | 458 kts | 135° |
| 2026-05-07 08:16 | 48.66948 | 10.99004 | 22971 ft | 458 kts | 135° |
| 2026-05-07 08:17 | 48.64763 | 11.02419 | 22935 ft | 458 kts | 136° |
| 2026-05-07 08:17 | 48.62559 | 11.05850 | 22034 ft | 453 kts | 136° |
| 2026-05-07 08:17 | 48.60384 | 11.09230 | 21123 ft | 446 kts | 136° |
| 2026-05-07 08:17 | 48.58225 | 11.12558 | 20272 ft | 439 kts | 138° |
| 2026-05-07 08:18 | 48.55876 | 11.15389 | 19763 ft | 424 kts | 147° |
| 2026-05-07 08:18 | 48.53450 | 11.17768 | 19218 ft | 409 kts | 150° |
| 2026-05-07 08:18 | 48.51085 | 11.20051 | 18691 ft | 399 kts | 148° |
| 2026-05-07 08:18 | 48.48928 | 11.22615 | 18092 ft | 392 kts | 141° |
| 2026-05-07 08:19 | 48.46924 | 11.25384 | 17323 ft | 389 kts | 139° |
| 2026-05-07 08:19 | 48.44979 | 11.28143 | 16836 ft | 378 kts | 140° |
| 2026-05-07 08:19 | 48.43160 | 11.30936 | 16352 ft | 372 kts | 130° |
| 2026-05-07 08:19 | 48.42068 | 11.34458 | 15674 ft | 377 kts | 105° |
| 2026-05-07 08:20 | 48.41746 | 11.38371 | 15057 ft | 377 kts | 93° |
| 2026-05-07 08:20 | 48.41894 | 11.42305 | 14459 ft | 376 kts | 84° |
| 2026-05-07 08:20 | 48.42244 | 11.45989 | 13899 ft | 374 kts | 82° |
| 2026-05-07 08:20 | 48.42650 | 11.49832 | 13382 ft | 368 kts | 82° |
| 2026-05-07 08:21 | 48.43029 | 11.53577 | 13149 ft | 355 kts | 83° |
| 2026-05-07 08:21 | 48.43337 | 11.57180 | 13075 ft | 338 kts | 84° |
| 2026-05-07 08:21 | 48.43600 | 11.60616 | 13063 ft | 323 kts | 85° |
| 2026-05-07 08:21 | 48.43857 | 11.63962 | 12668 ft | 322 kts | 85° |
| 2026-05-07 08:22 | 48.44104 | 11.67146 | 12309 ft | 320 kts | 85° |
| 2026-05-07 08:22 | 48.44362 | 11.70472 | 11930 ft | 319 kts | 84° |
| 2026-05-07 08:22 | 48.44619 | 11.73783 | 11518 ft | 319 kts | 85° |
| 2026-05-07 08:22 | 48.44871 | 11.77087 | 11149 ft | 317 kts | 85° |
| 2026-05-07 08:23 | 48.45123 | 11.80382 | 10794 ft | 316 kts | 85° |
| 2026-05-07 08:23 | 48.45374 | 11.83659 | 10431 ft | 314 kts | 85° |
| 2026-05-07 08:23 | 48.45623 | 11.86924 | 10070 ft | 313 kts | 85° |
| 2026-05-07 08:23 | 48.45852 | 11.89921 | 9718 ft | 311 kts | 85° |
| 2026-05-07 08:24 | 48.46098 | 11.93173 | 9333 ft | 309 kts | 84° |
| 2026-05-07 08:24 | 48.46339 | 11.96364 | 9132 ft | 301 kts | 84° |
| 2026-05-07 08:24 | 48.46565 | 11.99421 | 9105 ft | 287 kts | 85° |
| 2026-05-07 08:24 | 48.46778 | 12.02338 | 9047 ft | 274 kts | 85° |
| 2026-05-07 08:25 | 48.46981 | 12.05140 | 8934 ft | 264 kts | 85° |
| 2026-05-07 08:25 | 48.47180 | 12.07865 | 8682 ft | 261 kts | 85° |
| 2026-05-07 08:25 | 48.47377 | 12.10523 | 8396 ft | 259 kts | 85° |
| 2026-05-07 08:25 | 48.47577 | 12.13219 | 8082 ft | 258 kts | 85° |
| 2026-05-07 08:26 | 48.47958 | 12.18405 | 7525 ft | 242 kts | 85° |
| 2026-05-07 08:26 | 48.48137 | 12.20898 | 7134 ft | 231 kts | 84° |
| 2026-05-07 08:26 | 48.48309 | 12.23237 | 6733 ft | 220 kts | 84° |
| 2026-05-07 08:27 | 48.48474 | 12.25504 | 6251 ft | 216 kts | 84° |
| 2026-05-07 08:27 | 48.48602 | 12.27746 | 5697 ft | 213 kts | 93° |
| 2026-05-07 08:27 | 48.48055 | 12.29726 | 5219 ft | 201 kts | 139° |
| 2026-05-07 08:27 | 48.46895 | 12.30500 | 5029 ft | 172 kts | 189° |
| 2026-05-07 08:28 | 48.45956 | 12.29788 | 4972 ft | 142 kts | 233° |
| 2026-05-07 08:28 | 48.45265 | 12.28645 | 4985 ft | 154 kts | 232° |
| 2026-05-07 08:28 | 48.44544 | 12.27377 | 5025 ft | 165 kts | 233° |
| 2026-05-07 08:28 | 48.43792 | 12.25973 | 5052 ft | 179 kts | 234° |
| 2026-05-07 08:29 | 48.42999 | 12.24453 | 5063 ft | 190 kts | 235° |
| 2026-05-07 08:29 | 48.42171 | 12.22872 | 5051 ft | 191 kts | 235° |
| 2026-05-07 08:29 | 48.41360 | 12.21309 | 5034 ft | 187 kts | 235° |
| 2026-05-07 08:29 | 48.40571 | 12.19767 | 5008 ft | 184 kts | 235° |
| 2026-05-07 08:30 | 48.39967 | 12.18116 | 4973 ft | 179 kts | 258° |
| 2026-05-07 08:30 | 48.39736 | 12.16290 | 4985 ft | 177 kts | 259° |
| 2026-05-07 08:30 | 48.39584 | 12.15087 | 4980 ft | 176 kts | 259° |
| 2026-05-07 08:30 | 48.39361 | 12.13279 | 4981 ft | 175 kts | 260° |
| 2026-05-07 08:31 | 48.39147 | 12.11495 | 4987 ft | 169 kts | 260° |
| 2026-05-07 08:31 | 48.38952 | 12.09804 | 4980 ft | 160 kts | 261° |
| 2026-05-07 08:31 | 48.38782 | 12.08182 | 4958 ft | 156 kts | 261° |
| 2026-05-07 08:31 | 48.38614 | 12.06548 | 4693 ft | 159 kts | 261° |
| 2026-05-07 08:32 | 48.38460 | 12.04890 | 4497 ft | 161 kts | 263° |
| 2026-05-07 08:32 | 48.38324 | 12.03208 | 4287 ft | 163 kts | 263° |
| 2026-05-07 08:32 | 48.38188 | 12.01498 | 4046 ft | 166 kts | 263° |
| 2026-05-07 08:32 | 48.38053 | 11.99787 | 3818 ft | 163 kts | 262° |
| 2026-05-07 08:33 | 48.37921 | 11.98111 | 3606 ft | 160 kts | 262° |
| 2026-05-07 08:33 | 48.37791 | 11.96463 | 3385 ft | 157 kts | 263° |
| 2026-05-07 08:33 | 48.37658 | 11.94865 | 3177 ft | 148 kts | 263° |
| 2026-05-07 08:33 | 48.37546 | 11.93414 | 2978 ft | 133 kts | 263° |
| 2026-05-07 08:34 | 48.37446 | 11.92087 | 2829 ft | 123 kts | 264° |
| 2026-05-07 08:34 | 48.37360 | 11.90808 | 2683 ft | 126 kts | 263° |
| 2026-05-07 08:34 | 48.37253 | 11.89462 | 2501 ft | 133 kts | 263° |
| 2026-05-07 08:34 | 48.37141 | 11.88089 | 2273 ft | 131 kts | 264° |
| 2026-05-07 08:35 | 48.37050 | 11.86749 | 2112 ft | 128 kts | 264° |
| 2026-05-07 08:35 | 48.36953 | 11.85451 | 1994 ft | 121 kts | 263° |
| 2026-05-07 08:35 | 48.36857 | 11.84229 | 1800 ft | 116 kts | 263° |
| 2026-05-07 08:35 | 48.36766 | 11.83005 | 1634 ft | 120 kts | 263° |
| 2026-05-07 08:36 | 48.36663 | 11.81799 | 1516 ft | 111 kts | 264° |
| 2026-05-07 08:36 | 48.36586 | 11.80783 | 1484 ft | 79 kts | 263° |
| 2026-05-07 08:36 | 48.36538 | 11.80155 | 1471 ft | 51 kts | 264° |
| 2026-05-07 08:36 | 48.36443 | 11.79689 | 1481 ft | 44 kts | 233° |
| 2026-05-07 08:37 | 48.36323 | 11.79442 | 1475 ft | 15 kts | 233° |
| 2026-05-07 08:37 | 48.36254 | 11.79332 | 1483 ft | 14 kts | 202° |
| 2026-05-07 08:37 | 48.36158 | 11.79305 | 1483 ft | 14 kts | 177° |
| 2026-05-07 08:37 | 48.36056 | 11.79321 | 1480 ft | 15 kts | 173° |
| 2026-05-07 08:38 | 48.35952 | 11.79340 | 1481 ft | 15 kts | 172° |
| 2026-05-07 08:38 | 48.35876 | 11.79437 | 1482 ft | 15 kts | 149° |
| 2026-05-07 08:38 | 48.35817 | 11.79534 | 1480 ft | 14 kts | 88° |
| 2026-05-07 08:38 | 48.35827 | 11.79681 | 1484 ft | 15 kts | 84° |
| 2026-05-07 08:39 | 48.35839 | 11.79829 | 1479 ft | 13 kts | 83° |
| 2026-05-07 08:39 | 48.35848 | 11.79944 | 1473 ft | 6 kts | 83° |
| 2026-05-07 08:39 | 48.35851 | 11.79993 | 1475 ft | 0 kts | 91° |
| 2026-05-07 08:39 | 48.35851 | 11.79999 | 1475 ft | 1 kts | 95° |
| 2026-05-07 08:40 | 48.35849 | 11.80013 | 1474 ft | 2 kts | 107° |
| 2026-05-07 08:40 | 48.35836 | 11.80042 | 1480 ft | 6 kts | 137° |
| 2026-05-07 08:40 | 48.35788 | 11.80064 | 1484 ft | 10 kts | 172° |
| 2026-05-07 08:40 | 48.35707 | 11.80081 | 1475 ft | 14 kts | 164° |
| 2026-05-07 08:41 | 48.35622 | 11.80103 | 1480 ft | 10 kts | 173° |
| 2026-05-07 08:41 | 48.35594 | 11.80121 | 1475 ft | 4 kts | 121° |
| 2026-05-07 08:41 | 48.35592 | 11.80170 | 1484 ft | 6 kts | 83° |
| 2026-05-07 08:41 | 48.35597 | 11.80223 | 1484 ft | 0 kts | 83° |
| 2026-05-07 08:42 | 48.35597 | 11.80227 | 1484 ft | 0 kts | 83° |